Time;durP1;ratioP1;P1;durP2;ratioP2;P2;SDS_P1;SDS_P2;PMS_P1;PMS_P2;Temp;Humidity;BMP_temperature;BMP_pressure;BME280_temperature;BME280_humidity;BME280_pressure;Samples;Min_cycle;Max_cycle;Signal;HPM_P1;HPM_P2
2022/07/30 00:01:12;;;;;;;5.10;2.22;;;21.70;99.90;;;;;;4981904;28;20220;-74
2022/07/30 00:03:38;;;;;;;4.53;2.03;;;21.70;99.90;;;;;;4980110;28;20208;-74
2022/07/30 00:06:03;;;;;;;3.40;1.90;;;21.70;99.90;;;;;;5002003;28;20212;-75
2022/07/30 00:08:29;;;;;;;5.78;2.00;;;21.70;99.90;;;;;;5001504;28;20189;-76
2022/07/30 00:10:54;;;;;;;2.67;2.10;;;21.60;99.90;;;;;;4998854;28;20241;-75
2022/07/30 00:13:20;;;;;;;4.22;2.22;;;21.60;99.90;;;;;;4996089;28;20225;-75
2022/07/30 00:15:46;;;;;;;4.57;2.47;;;21.60;99.90;;;;;;4997150;28;20598;-75
2022/07/30 00:18:12;;;;;;;4.18;2.38;;;21.50;99.90;;;;;;4999455;28;20208;-74
2022/07/30 00:20:39;;;;;;;5.85;2.60;;;21.50;99.90;;;;;;4997458;28;20174;-75
2022/07/30 00:23:05;;;;;;;4.10;2.10;;;21.50;99.90;;;;;;4985657;28;20185;-75
2022/07/30 00:25:31;;;;;;;7.20;2.33;;;21.50;99.90;;;;;;4984018;28;20570;-75
2022/07/30 00:27:57;;;;;;;2.80;2.08;;;21.50;99.90;;;;;;4997965;28;20206;-76
2022/07/30 00:30:23;;;;;;;5.90;2.10;;;21.40;99.90;;;;;;4974627;28;20222;-74
2022/07/30 00:32:48;;;;;;;5.75;2.17;;;21.40;99.90;;;;;;5000758;28;20169;-75
2022/07/30 00:35:14;;;;;;;5.38;2.33;;;21.40;99.90;;;;;;4991250;28;20200;-75
2022/07/30 00:37:40;;;;;;;4.50;2.13;;;21.40;99.90;;;;;;5009282;28;20213;-76
2022/07/30 00:40:07;;;;;;;8.68;2.72;;;21.30;99.90;;;;;;5007901;28;20197;-75
2022/07/30 00:42:51;;;;;;;4.97;2.00;;;21.30;99.90;;;;;;5018943;28;20240;-75
2022/07/30 00:45:17;;;;;;;4.82;2.40;;;21.30;99.90;;;;;;5008454;28;20216;-75
2022/07/30 00:47:43;;;;;;;5.63;2.17;;;21.30;99.90;;;;;;5008166;28;20256;-74
2022/07/30 00:50:11;;;;;;;6.03;2.20;;;21.30;99.90;;;;;;5006167;28;20186;-76
2022/07/30 00:52:38;;;;;;;2.20;2.00;;;21.20;99.90;;;;;;4997613;28;20745;-76
2022/07/30 00:55:06;;;;;;;4.85;2.17;;;21.20;99.90;;;;;;4995789;28;20256;-75
2022/07/30 00:57:31;;;;;;;5.07;1.98;;;21.20;99.90;;;;;;4998636;28;20214;-75
2022/07/30 00:59:57;;;;;;;3.67;2.15;;;21.20;99.90;;;;;;4982431;28;20212;-75
2022/07/30 01:02:23;;;;;;;3.28;2.13;;;21.20;99.90;;;;;;4997182;28;20173;-74
2022/07/30 01:04:48;;;;;;;5.53;2.22;;;21.10;99.90;;;;;;4981180;28;20193;-76
2022/07/30 01:07:14;;;;;;;4.13;2.20;;;21.10;99.90;;;;;;5000074;28;20300;-76
2022/07/30 01:09:40;;;;;;;3.65;2.03;;;21.10;99.90;;;;;;4997629;28;20209;-76
2022/07/30 01:12:08;;;;;;;4.10;1.90;;;21.10;99.90;;;;;;4995245;28;20209;-76
2022/07/30 01:14:35;;;;;;;5.45;2.20;;;21.10;99.90;;;;;;4999147;28;20634;-75
2022/07/30 01:17:02;;;;;;;5.70;2.33;;;21.10;99.90;;;;;;5000355;28;20595;-75
2022/07/30 01:19:50;;;;;;;3.70;2.55;;;21.00;99.90;;;;;;4997248;28;20222;-76
2022/07/30 01:22:25;;;;;;;3.42;2.20;;;21.00;99.90;;;;;;4993958;28;20624;-76
2022/07/30 01:25:03;;;;;;;2.15;1.95;;;21.00;99.90;;;;;;4981173;28;20216;-76
2022/07/30 01:27:43;;;;;;;3.40;1.83;;;20.90;99.90;;;;;;4980325;28;20202;-76
2022/07/30 01:30:10;;;;;;;7.28;2.50;;;20.90;99.90;;;;;;4992369;28;20224;-75
2022/07/30 01:32:40;;;;;;;5.65;2.58;;;20.90;99.90;;;;;;4984205;28;20174;-74
2022/07/30 01:35:09;;;;;;;5.30;2.42;;;20.80;99.90;;;;;;4998318;28;20173;-76
2022/07/30 01:37:36;;;;;;;7.13;2.42;;;20.80;99.90;;;;;;4995742;28;20587;-76
2022/07/30 01:40:03;;;;;;;4.78;2.42;;;20.80;99.90;;;;;;4996620;28;20732;-76
2022/07/30 01:42:31;;;;;;;10.98;2.42;;;20.80;99.90;;;;;;4999686;28;20576;-75
2022/07/30 01:44:58;;;;;;;4.82;2.40;;;20.70;99.90;;;;;;4997957;28;20212;-76
2022/07/30 01:47:24;;;;;;;6.32;2.50;;;20.70;99.90;;;;;;4991479;28;20275;-76
2022/07/30 01:49:51;;;;;;;4.85;2.45;;;20.70;99.90;;;;;;5002027;28;20223;-77
2022/07/30 01:52:19;;;;;;;4.25;2.33;;;20.70;99.90;;;;;;4997397;28;20222;-77
2022/07/30 01:54:49;;;;;;;5.57;2.42;;;20.60;99.90;;;;;;4996138;28;20212;-77
2022/07/30 01:57:18;;;;;;;5.20;2.20;;;20.70;99.90;;;;;;4996465;28;20216;-76
2022/07/30 01:59:47;;;;;;;5.53;2.13;;;20.60;99.90;;;;;;5004020;28;20173;-75
2022/07/30 02:02:13;;;;;;;5.68;2.05;;;20.60;99.90;;;;;;4995818;28;20590;-75
2022/07/30 02:04:39;;;;;;;7.70;2.90;;;20.60;99.90;;;;;;4996575;28;20220;-75
2022/07/30 02:07:18;;;;;;;6.65;2.13;;;20.50;99.90;;;;;;5000096;28;20244;-75
2022/07/30 02:10:12;;;;;;;4.55;2.45;;;20.40;99.90;;;;;;4980553;28;20219;-76
2022/07/30 02:12:45;;;;;;;2.95;2.60;;;20.40;99.90;;;;;;4988880;28;20259;-75
2022/07/30 02:15:24;;;;;;;6.63;2.30;;;20.30;99.90;;;;;;4982830;28;20206;-75
2022/07/30 02:18:15;;;;;;;7.13;2.70;;;20.30;99.90;;;;;;4990551;28;20701;-75
2022/07/30 02:20:45;;;;;;;6.63;2.60;;;20.40;99.90;;;;;;4994730;28;20183;-76
2022/07/30 02:23:13;;;;;;;3.70;2.40;;;20.30;99.90;;;;;;4997013;28;20170;-74
2022/07/30 02:25:45;;;;;;;3.92;2.28;;;20.20;99.90;;;;;;4999521;28;20206;-76
2022/07/30 02:28:14;;;;;;;3.38;2.30;;;20.20;99.90;;;;;;4994826;28;20300;-75
2022/07/30 02:30:45;;;;;;;3.78;2.35;;;20.20;99.90;;;;;;5000953;28;20225;-76
2022/07/30 02:33:14;;;;;;;4.32;2.38;;;20.20;99.90;;;;;;4984110;28;20224;-76
2022/07/30 02:35:40;;;;;;;3.85;2.50;;;20.20;99.90;;;;;;4997530;28;20181;-75
2022/07/30 02:38:06;;;;;;;3.80;2.10;;;20.10;99.90;;;;;;4997917;28;20550;-75
2022/07/30 02:40:32;;;;;;;4.00;2.47;;;20.20;99.90;;;;;;5000924;28;20678;-75
2022/07/30 02:42:59;;;;;;;4.78;2.10;;;20.20;99.90;;;;;;4980557;28;20206;-75
2022/07/30 02:45:26;;;;;;;6.18;2.50;;;20.20;99.90;;;;;;4975573;28;20209;-75
2022/07/30 02:48:02;;;;;;;4.60;2.30;;;20.20;99.90;;;;;;4985125;28;20185;-75
2022/07/30 02:50:29;;;;;;;8.23;2.95;;;20.10;99.90;;;;;;4992509;28;20201;-76
2022/07/30 02:52:58;;;;;;;3.33;2.28;;;20.10;99.90;;;;;;4991669;28;20705;-75
2022/07/30 02:55:26;;;;;;;4.28;2.25;;;20.10;99.90;;;;;;4991537;28;20226;-74
2022/07/30 02:57:54;;;;;;;2.65;1.95;;;20.10;99.90;;;;;;4973965;28;20197;-75
2022/07/30 03:00:20;;;;;;;3.85;2.67;;;20.10;99.90;;;;;;4992315;28;20206;-76
2022/07/30 03:02:46;;;;;;;3.25;2.17;;;20.10;99.90;;;;;;4990185;28;20241;-76
2022/07/30 03:05:14;;;;;;;3.92;2.47;;;20.00;99.90;;;;;;4974568;28;20705;-76
2022/07/30 03:07:40;;;;;;;5.57;2.58;;;20.00;99.90;;;;;;4991109;28;20212;-76
2022/07/30 03:10:07;;;;;;;4.22;2.53;;;20.10;99.90;;;;;;4991445;28;20217;-76
2022/07/30 03:12:34;;;;;;;4.15;1.90;;;20.00;99.90;;;;;;4991436;28;20206;-76
2022/07/30 03:15:00;;;;;;;3.15;2.15;;;20.00;99.90;;;;;;4990846;28;20760;-76
2022/07/30 03:17:30;;;;;;;4.55;2.28;;;20.00;99.90;;;;;;4991793;28;20202;-75
2022/07/30 03:19:59;;;;;;;3.35;2.05;;;20.00;99.90;;;;;;4991300;28;20713;-76
2022/07/30 03:22:27;;;;;;;3.75;2.22;;;20.10;99.90;;;;;;4963832;28;20210;-76
2022/07/30 03:24:53;;;;;;;4.13;2.40;;;20.10;99.90;;;;;;4991818;28;20606;-77
2022/07/30 03:27:21;;;;;;;3.88;2.28;;;20.10;99.90;;;;;;4975253;28;20765;-75
2022/07/30 03:29:48;;;;;;;8.75;2.63;;;20.10;99.90;;;;;;4990276;28;20197;-76
2022/07/30 03:32:14;;;;;;;3.85;2.17;;;20.00;99.90;;;;;;4974460;28;20174;-76
2022/07/30 03:34:41;;;;;;;2.90;1.88;;;20.10;99.90;;;;;;4974432;28;20205;-75
2022/07/30 03:37:07;;;;;;;4.05;2.20;;;20.00;99.90;;;;;;4974758;28;20241;-75
2022/07/30 03:39:34;;;;;;;4.10;2.22;;;20.00;99.90;;;;;;4991232;28;20216;-76
2022/07/30 03:42:01;;;;;;;5.95;1.75;;;19.90;99.90;;;;;;4992348;28;20288;-76
2022/07/30 03:44:28;;;;;;;4.45;2.45;;;19.90;99.90;;;;;;4992512;28;20227;-76
2022/07/30 03:46:54;;;;;;;6.53;2.13;;;20.00;99.90;;;;;;4991105;28;20584;-76
2022/07/30 03:49:21;;;;;;;5.50;2.20;;;20.10;99.90;;;;;;4973380;28;20208;-76
2022/07/30 03:51:48;;;;;;;7.95;2.30;;;20.10;99.90;;;;;;4988533;28;20363;-75
2022/07/30 03:54:15;;;;;;;4.53;1.90;;;20.20;99.90;;;;;;4991083;28;20206;-76
2022/07/30 03:56:41;;;;;;;6.38;2.50;;;20.30;99.90;;;;;;4990563;28;21418;-75
2022/07/30 03:59:07;;;;;;;4.50;2.25;;;20.30;99.90;;;;;;4991798;28;20174;-76
2022/07/30 04:01:33;;;;;;;6.05;2.10;;;20.40;99.90;;;;;;4972424;28;20565;-75
2022/07/30 04:04:07;;;;;;;4.40;2.33;;;20.40;99.90;;;;;;4974072;28;20229;-76
2022/07/30 04:06:38;;;;;;;4.03;2.25;;;20.40;99.90;;;;;;4990889;28;20215;-75
2022/07/30 04:09:07;;;;;;;8.15;2.25;;;20.40;99.90;;;;;;4990866;28;20205;-76
2022/07/30 04:11:32;;;;;;;3.58;2.08;;;20.40;99.90;;;;;;4972167;28;20194;-76
2022/07/30 04:13:58;;;;;;;7.90;2.42;;;20.50;99.90;;;;;;4991453;28;20270;-75
2022/07/30 04:16:44;;;;;;;7.57;2.70;;;20.50;99.90;;;;;;4974062;28;20246;-76
2022/07/30 04:19:33;;;;;;;8.93;2.47;;;20.50;99.90;;;;;;4986692;28;20205;-75
2022/07/30 04:22:01;;;;;;;8.63;2.50;;;20.50;99.90;;;;;;4991261;28;20201;-76
2022/07/30 04:24:29;;;;;;;6.47;2.33;;;20.50;99.90;;;;;;4990915;28;20212;-75
2022/07/30 04:26:57;;;;;;;6.72;2.45;;;20.60;99.90;;;;;;4993908;28;20284;-75
2022/07/30 04:29:23;;;;;;;6.10;1.85;;;20.60;99.90;;;;;;4995297;28;20192;-75
2022/07/30 04:31:50;;;;;;;7.93;2.00;;;20.60;99.90;;;;;;4995192;28;20248;-76
2022/07/30 04:34:15;;;;;;;6.22;2.03;;;20.50;99.90;;;;;;4994850;28;20208;-75
2022/07/30 04:36:42;;;;;;;3.80;1.92;;;20.60;99.90;;;;;;5004258;23;20288;-69
2022/07/30 04:39:08;;;;;;;4.65;2.40;;;20.60;99.90;;;;;;5012649;28;20211;-70
2022/07/30 04:41:34;;;;;;;3.67;2.08;;;20.60;99.90;;;;;;5004954;28;20186;-70
2022/07/30 04:44:00;;;;;;;5.18;1.73;;;20.50;99.90;;;;;;5004954;28;20177;-69
2022/07/30 04:46:26;;;;;;;9.25;2.42;;;20.50;99.90;;;;;;5007711;28;20678;-70
2022/07/30 04:48:51;;;;;;;6.07;2.35;;;20.60;99.90;;;;;;5007930;28;20274;-69
2022/07/30 04:51:32;;;;;;;7.50;2.70;;;20.60;99.90;;;;;;5000021;28;20224;-70
2022/07/30 04:53:59;;;;;;;10.02;3.22;;;20.60;99.90;;;;;;5007017;28;20240;-69
2022/07/30 04:56:26;;;;;;;4.80;2.45;;;20.50;99.90;;;;;;4992057;28;20174;-70
2022/07/30 04:58:52;;;;;;;3.20;2.55;;;20.50;99.90;;;;;;5010491;28;20201;-70
2022/07/30 05:01:23;;;;;;;4.10;1.90;;;20.40;99.90;;;;;;4992824;28;20209;-70
2022/07/30 05:03:51;;;;;;;4.85;2.30;;;20.30;99.90;;;;;;5005091;28;20201;-70
2022/07/30 05:06:18;;;;;;;7.70;2.53;;;20.50;99.90;;;;;;4989956;28;20216;-69
2022/07/30 05:08:44;;;;;;;5.70;2.08;;;20.40;99.90;;;;;;5001215;28;20204;-68
2022/07/30 05:11:13;;;;;;;4.50;2.13;;;20.60;99.90;;;;;;5004016;28;20207;-68
2022/07/30 05:13:49;;;;;;;3.88;1.83;;;20.70;99.90;;;;;;5000583;28;20212;-70
2022/07/30 05:16:16;;;;;;;7.30;4.00;;;20.90;99.90;;;;;;5000940;28;20712;-69
2022/07/30 05:18:41;;;;;;;4.53;2.20;;;20.80;99.90;;;;;;5001423;28;20208;-69
2022/07/30 05:21:08;;;;;;;4.93;2.38;;;20.90;99.90;;;;;;5002782;28;20283;-68
2022/07/30 05:23:34;;;;;;;8.45;4.07;;;20.90;99.90;;;;;;5000992;28;20169;-69
2022/07/30 05:25:59;;;;;;;7.68;2.72;;;21.10;99.90;;;;;;5003987;28;20670;-68
2022/07/30 05:28:28;;;;;;;6.28;2.95;;;21.20;99.90;;;;;;5002956;28;20205;-67
2022/07/30 05:30:54;;;;;;;3.85;1.52;;;21.30;99.90;;;;;;5000372;28;20619;-66
2022/07/30 05:33:21;;;;;;;7.97;6.97;;;21.40;99.90;;;;;;5003001;28;20201;-66
2022/07/30 05:35:48;;;;;;;5.97;3.92;;;21.50;99.90;;;;;;5000733;28;20185;-66
2022/07/30 05:38:14;;;;;;;9.40;3.42;;;21.40;99.90;;;;;;5000757;28;20578;-66
2022/07/30 05:40:39;;;;;;;4.07;2.85;;;21.50;99.90;;;;;;5000106;28;20208;-66
2022/07/30 05:43:05;;;;;;;8.18;4.07;;;21.60;99.90;;;;;;5003626;28;20260;-67
2022/07/30 05:45:31;;;;;;;4.00;2.38;;;21.60;99.90;;;;;;5006868;28;20204;-67
2022/07/30 05:47:56;;;;;;;4.90;3.20;;;21.60;99.90;;;;;;4999936;28;20296;-66
2022/07/30 05:50:22;;;;;;;4.97;2.40;;;21.50;99.90;;;;;;5002551;28;20196;-67
2022/07/30 05:52:48;;;;;;;3.47;2.30;;;21.50;99.90;;;;;;4986091;28;20210;-66
2022/07/30 05:55:13;;;;;;;2.42;1.50;;;21.70;99.90;;;;;;5002055;28;20286;-67
2022/07/30 05:57:41;;;;;;;4.15;1.70;;;22.00;99.90;;;;;;4999128;28;20216;-66
2022/07/30 06:00:08;;;;;;;7.40;2.00;;;22.40;99.90;;;;;;5003381;28;20260;-66
2022/07/30 06:02:33;;;;;;;2.40;1.35;;;22.80;99.90;;;;;;5000244;28;20257;-66
2022/07/30 06:04:59;;;;;;;3.53;2.10;;;22.80;99.90;;;;;;5004127;28;20248;-66
2022/07/30 06:07:25;;;;;;;4.32;2.10;;;23.00;99.90;;;;;;4985271;28;20605;-66
2022/07/30 06:09:51;;;;;;;5.68;1.92;;;23.20;99.90;;;;;;5001433;28;20736;-67
2022/07/30 06:12:17;;;;;;;3.45;1.85;;;23.40;99.90;;;;;;5000324;28;20225;-67
2022/07/30 06:14:42;;;;;;;5.60;1.95;;;23.50;99.90;;;;;;4999240;28;20738;-67
2022/07/30 06:17:08;;;;;;;6.30;2.10;;;23.50;99.90;;;;;;5003497;28;20672;-66
2022/07/30 06:19:33;;;;;;;3.00;2.10;;;23.50;99.90;;;;;;4999286;28;20201;-67
2022/07/30 06:21:59;;;;;;;4.78;2.72;;;23.60;99.90;;;;;;4991526;28;20197;-66
2022/07/30 06:24:25;;;;;;;5.40;1.77;;;23.50;99.90;;;;;;4999513;28;20838;-67
2022/07/30 06:26:50;;;;;;;5.05;2.05;;;23.60;99.90;;;;;;5001313;28;20264;-69
2022/07/30 06:29:16;;;;;;;3.30;2.00;;;23.80;99.90;;;;;;5000958;28;20220;-68
2022/07/30 06:31:41;;;;;;;11.60;2.05;;;24.10;99.90;;;;;;4998978;28;20400;-66
2022/07/30 06:34:07;;;;;;;5.38;1.90;;;24.50;99.90;;;;;;4987284;28;20278;-66
2022/07/30 06:36:32;;;;;;;9.57;2.15;;;24.80;99.90;;;;;;4999380;28;20210;-66
2022/07/30 06:38:58;;;;;;;4.30;2.08;;;25.00;99.90;;;;;;5001584;28;20215;-67
2022/07/30 06:41:23;;;;;;;4.25;1.88;;;25.40;99.90;;;;;;4999394;28;20533;-67
2022/07/30 06:43:49;;;;;;;3.65;2.20;;;24.90;99.90;;;;;;5000995;28;20232;-67
2022/07/30 06:46:15;;;;;;;3.03;2.05;;;25.00;99.90;;;;;;5006456;28;20200;-67
2022/07/30 06:48:41;;;;;;;3.30;1.90;;;24.80;99.90;;;;;;4998428;28;20240;-68
2022/07/30 06:51:06;;;;;;;7.72;2.58;;;24.90;99.90;;;;;;5002306;28;20314;-67
2022/07/30 06:53:32;;;;;;;3.53;2.15;;;25.20;99.90;;;;;;4998774;28;20177;-67
2022/07/30 06:55:58;;;;;;;4.47;2.38;;;25.10;99.90;;;;;;5001774;28;20176;-67
2022/07/30 06:58:23;;;;;;;3.20;1.83;;;24.60;99.90;;;;;;4998165;28;20204;-67
2022/07/30 07:00:49;;;;;;;2.63;1.63;;;24.70;99.90;;;;;;4998708;28;20340;-67
2022/07/30 07:03:14;;;;;;;3.80;1.70;;;25.00;99.90;;;;;;5000230;28;20693;-67
2022/07/30 07:05:40;;;;;;;4.97;1.50;;;25.00;99.90;;;;;;5001828;28;20677;-67
2022/07/30 07:08:06;;;;;;;6.60;2.00;;;25.30;99.90;;;;;;5003042;28;20568;-67
2022/07/30 07:10:32;;;;;;;6.93;1.75;;;25.50;99.90;;;;;;4998514;28;20213;-67
2022/07/30 07:12:59;;;;;;;4.18;1.98;;;25.90;99.90;;;;;;5001256;28;20262;-67
2022/07/30 07:15:25;;;;;;;4.88;1.75;;;26.20;99.90;;;;;;4997960;28;20261;-68
2022/07/30 07:17:51;;;;;;;7.47;3.55;;;26.20;99.90;;;;;;5000047;28;20197;-67
2022/07/30 07:20:16;;;;;;;4.70;2.45;;;25.80;99.90;;;;;;4999994;28;20565;-67
2022/07/30 07:22:42;;;;;;;4.78;2.00;;;26.10;99.90;;;;;;4988488;28;20627;-68
2022/07/30 07:25:08;;;;;;;4.18;2.38;;;26.30;99.90;;;;;;5001714;28;20279;-67
2022/07/30 07:27:33;;;;;;;3.08;1.52;;;26.50;99.90;;;;;;4998122;28;20210;-68
2022/07/30 07:29:59;;;;;;;5.32;1.90;;;26.40;99.90;;;;;;5001182;28;20220;-67
2022/07/30 07:32:25;;;;;;;2.40;1.80;;;25.90;99.90;;;;;;4998446;28;20165;-67
2022/07/30 07:34:50;;;;;;;1.80;1.63;;;25.90;99.90;;;;;;5000667;28;20620;-68
2022/07/30 07:37:16;;;;;;;2.33;1.52;;;25.80;99.90;;;;;;4999664;28;20221;-67
2022/07/30 07:39:42;;;;;;;5.00;2.13;;;25.70;99.90;;;;;;4987644;28;20197;-66
2022/07/30 07:42:07;;;;;;;3.05;2.10;;;25.70;99.90;;;;;;5001630;28;20324;-67
2022/07/30 07:44:33;;;;;;;7.55;4.13;;;25.90;99.90;;;;;;4998318;28;20169;-68
2022/07/30 07:46:58;;;;;;;4.82;2.08;;;25.70;99.90;;;;;;5008202;28;20224;-67
2022/07/30 07:49:24;;;;;;;2.67;2.10;;;25.70;99.90;;;;;;4997927;28;20200;-67
2022/07/30 07:51:50;;;;;;;2.40;1.75;;;25.70;99.90;;;;;;4997986;28;20400;-69
2022/07/30 07:54:16;;;;;;;4.22;1.80;;;25.80;99.90;;;;;;5000464;28;20213;-67
2022/07/30 07:56:41;;;;;;;4.72;1.75;;;25.50;99.90;;;;;;4997688;28;20561;-67
2022/07/30 07:59:07;;;;;;;5.88;2.20;;;25.50;99.90;;;;;;5001542;28;20180;-67
2022/07/30 08:01:33;;;;;;;4.15;2.10;;;25.40;99.90;;;;;;5000052;28;20297;-67
2022/07/30 08:03:58;;;;;;;5.93;2.53;;;25.20;99.90;;;;;;5005246;28;20253;-67
2022/07/30 08:06:24;;;;;;;3.92;2.63;;;25.50;99.90;;;;;;5004955;28;20204;-66
2022/07/30 08:08:50;;;;;;;5.38;1.63;;;25.70;99.90;;;;;;5003105;28;20174;-67
2022/07/30 08:11:15;;;;;;;2.33;1.80;;;25.50;99.90;;;;;;5003852;28;20224;-67
2022/07/30 08:13:41;;;;;;;5.68;1.77;;;25.40;99.90;;;;;;5001579;28;20218;-67
2022/07/30 08:16:09;;;;;;;7.72;2.03;;;25.80;99.90;;;;;;5004952;28;20193;-67
2022/07/30 08:18:36;;;;;;;2.53;1.50;;;26.20;99.90;;;;;;5001746;28;20236;-67
2022/07/30 08:21:02;;;;;;;6.53;2.63;;;26.90;99.90;;;;;;5007058;28;20280;-68
2022/07/30 08:23:27;;;;;;;5.07;2.20;;;27.40;99.90;;;;;;4990684;28;20230;-67
2022/07/30 08:25:55;;;;;;;4.20;1.85;;;27.60;99.90;;;;;;5004011;28;20585;-67
2022/07/30 08:28:20;;;;;;;5.50;1.92;;;27.60;99.90;;;;;;5002434;28;20706;-67
2022/07/30 08:30:46;;;;;;;7.07;1.90;;;27.90;99.90;;;;;;5000612;28;20212;-67
2022/07/30 08:33:12;;;;;;;2.72;1.65;;;27.90;99.90;;;;;;5004822;28;20201;-67
2022/07/30 08:35:37;;;;;;;4.43;2.30;;;27.80;99.90;;;;;;5002194;28;20173;-67
2022/07/30 08:38:03;;;;;;;5.60;2.08;;;28.00;99.90;;;;;;5004010;28;20302;-66
2022/07/30 08:40:33;;;;;;;5.43;1.98;;;27.70;99.90;;;;;;5000874;28;20197;-68
2022/07/30 08:43:01;;;;;;;5.68;1.90;;;27.50;99.90;;;;;;5003796;28;20346;-67
2022/07/30 08:45:27;;;;;;;2.78;1.73;;;27.30;99.90;;;;;;4994437;28;20204;-66
2022/07/30 08:47:54;;;;;;;3.72;2.13;;;27.60;99.90;;;;;;4986799;28;20305;-68
2022/07/30 08:50:20;;;;;;;4.55;1.83;;;27.70;99.90;;;;;;4987761;28;20204;-67
2022/07/30 08:52:47;;;;;;;4.22;1.90;;;27.10;99.90;;;;;;5002400;28;20567;-67
2022/07/30 08:55:14;;;;;;;5.57;2.40;;;27.40;99.90;;;;;;5002514;28;20645;-67
2022/07/30 08:57:41;;;;;;;4.20;2.25;;;26.70;99.90;;;;;;5000551;28;20209;-66
2022/07/30 09:00:08;;;;;;;4.22;2.03;;;26.40;99.90;;;;;;5004299;28;20270;-67
2022/07/30 09:02:34;;;;;;;7.75;2.05;;;26.70;99.90;;;;;;5001418;28;20170;-66
2022/07/30 09:04:59;;;;;;;5.05;2.00;;;27.00;99.90;;;;;;5005325;28;20256;-67
2022/07/30 09:07:25;;;;;;;2.97;1.80;;;27.30;99.90;;;;;;5002749;28;20205;-67
2022/07/30 09:09:51;;;;;;;5.97;2.35;;;27.10;99.90;;;;;;5002573;28;20284;-67
2022/07/30 09:12:42;;;;;;;4.00;1.80;;;27.20;99.90;;;;;;5000737;28;20221;-68
2022/07/30 09:15:19;;;;;;;2.30;1.70;;;27.00;99.90;;;;;;5003363;28;20209;-67
2022/07/30 09:17:50;;;;;;;3.63;2.28;;;26.90;99.90;;;;;;5001174;28;20208;-66
2022/07/30 09:20:17;;;;;;;7.25;2.25;;;26.70;99.90;;;;;;5002204;28;20177;-68
2022/07/30 09:22:45;;;;;;;3.63;1.92;;;26.80;99.90;;;;;;5000166;28;20209;-67
2022/07/30 09:25:11;;;;;;;7.85;2.38;;;26.80;99.90;;;;;;5004164;28;20205;-67
2022/07/30 09:27:48;;;;;;;4.90;2.35;;;26.80;99.90;;;;;;4987575;28;20276;-67
2022/07/30 09:30:14;;;;;;;5.18;2.30;;;26.90;99.90;;;;;;5001182;28;20275;-67
2022/07/30 09:32:51;;;;;;;4.63;2.78;;;27.00;99.90;;;;;;4999713;28;20236;-67
2022/07/30 09:35:17;;;;;;;4.18;2.03;;;26.70;99.90;;;;;;5002567;28;20169;-67
2022/07/30 09:37:44;;;;;;;4.13;2.03;;;26.60;99.90;;;;;;5001763;28;20260;-67
2022/07/30 09:40:19;;;;;;;2.92;1.90;;;26.70;99.90;;;;;;5000585;28;20232;-67
2022/07/30 09:42:44;;;;;;;4.93;1.92;;;26.80;99.90;;;;;;5000626;28;20208;-68
2022/07/30 09:45:12;;;;;;;3.75;1.90;;;27.00;99.90;;;;;;4994856;28;20200;-67
2022/07/30 09:47:43;;;;;;;5.32;2.15;;;27.10;99.90;;;;;;5002999;28;20194;-67
2022/07/30 09:50:12;;;;;;;9.00;2.22;;;27.50;99.90;;;;;;5001067;28;20622;-68
2022/07/30 09:52:40;;;;;;;4.65;2.17;;;27.50;99.90;;;;;;5000328;28;20209;-67
2022/07/30 09:55:06;;;;;;;7.82;2.20;;;27.30;99.90;;;;;;5002505;28;20201;-68
2022/07/30 09:57:32;;;;;;;7.60;2.13;;;27.30;99.90;;;;;;4999897;28;20223;-67
2022/07/30 10:00:15;;;;;;;4.53;1.88;;;27.80;99.90;;;;;;5002544;28;20295;-68
2022/07/30 10:02:41;;;;;;;2.15;1.67;;;28.40;99.90;;;;;;5001646;28;20273;-68
2022/07/30 10:05:14;;;;;;;2.53;1.65;;;28.70;99.90;;;;;;5004588;28;20248;-68
2022/07/30 10:08:06;;;;;;;5.43;2.00;;;29.10;99.90;;;;;;4999944;28;20205;-67
2022/07/30 10:10:33;;;;;;;3.70;1.80;;;29.30;99.90;;;;;;5001575;28;20213;-68
2022/07/30 10:13:00;;;;;;;5.45;2.13;;;28.90;99.90;;;;;;5002895;28;20193;-68
2022/07/30 10:15:31;;;;;;;3.28;2.20;;;28.90;99.90;;;;;;4999707;28;20212;-68
2022/07/30 10:17:57;;;;;;;5.10;2.30;;;29.30;99.90;;;;;;4987893;28;20682;-67
2022/07/30 10:20:24;;;;;;;3.08;1.88;;;29.30;99.90;;;;;;5000593;28;20185;-68
2022/07/30 10:22:50;;;;;;;7.53;3.85;;;29.50;99.90;;;;;;5000043;28;20202;-68
2022/07/30 10:25:21;;;;;;;4.80;2.20;;;29.70;99.90;;;;;;5002839;28;20276;-68
2022/07/30 10:27:47;;;;;;;2.83;1.63;;;29.90;99.90;;;;;;4999650;28;20206;-67
2022/07/30 10:30:13;;;;;;;2.90;1.67;;;29.70;99.90;;;;;;5000785;28;20245;-67
2022/07/30 10:32:39;;;;;;;3.85;1.95;;;29.40;99.90;;;;;;4999274;28;20537;-67
2022/07/30 10:35:07;;;;;;;3.25;1.80;;;29.20;99.90;;;;;;5004233;28;20169;-68
2022/07/30 10:37:35;;;;;;;2.92;1.38;;;29.20;99.90;;;;;;4999818;28;20233;-67
2022/07/30 10:43:09;;;;;;;3.58;2.08;;;29.00;99.90;;;;;;4998627;28;20224;-75
2022/07/30 10:46:08;;;;;;;3.35;1.48;;;29.10;99.90;;;;;;4974160;28;20212;-75
2022/07/30 10:48:34;;;;;;;3.83;1.80;;;28.50;99.90;;;;;;4982394;28;20687;-75
2022/07/30 10:51:00;;;;;;;3.72;3.03;;;27.70;99.90;;;;;;4994146;28;20225;-74
2022/07/30 10:53:51;;;;;;;3.58;2.97;;;27.60;99.90;;;;;;4986194;28;20174;-75
2022/07/30 10:56:22;;;;;;;7.55;2.03;;;27.70;99.90;;;;;;4980514;28;20206;-75
2022/07/30 10:59:03;;;;;;;1.63;1.52;;;27.80;99.90;;;;;;4990380;28;20202;-76
2022/07/30 11:01:47;;;;;;;1.88;1.60;;;28.10;99.90;;;;;;4968873;28;20687;-76
2022/07/30 11:04:29;;;;;;;4.72;2.10;;;28.60;99.90;;;;;;4984408;28;20273;-75
2022/07/30 11:07:22;;;;;;;3.15;2.55;;;28.50;99.90;;;;;;4973056;28;20227;-76
2022/07/30 11:09:49;;;;;;;4.72;2.30;;;28.50;99.90;;;;;;4986221;28;20214;-75
2022/07/30 11:12:55;;;;;;;2.92;1.85;;;28.20;99.90;;;;;;4971650;28;20216;-76
2022/07/30 11:15:21;;;;;;;2.28;1.70;;;28.00;99.90;;;;;;4989416;28;20197;-75
2022/07/30 11:18:07;;;;;;;2.47;1.55;;;28.20;99.90;;;;;;4988560;28;20169;-75
2022/07/30 11:20:34;;;;;;;3.55;1.60;;;28.80;99.90;;;;;;4984491;28;20202;-75
2022/07/30 11:23:30;;;;;;;6.57;1.70;;;28.50;99.90;;;;;;4974573;28;20178;-74
2022/07/30 11:25:56;;;;;;;2.33;1.40;;;28.60;99.90;;;;;;4985146;28;20220;-74
2022/07/30 11:28:44;;;;;;;2.80;1.75;;;28.40;99.90;;;;;;4983386;28;20210;-74
2022/07/30 11:31:27;;;;;;;4.40;1.92;;;28.50;99.90;;;;;;4983136;28;20218;-75
2022/07/30 11:34:19;;;;;;;1.83;1.45;;;28.40;99.90;;;;;;4989812;28;20205;-77
2022/07/30 11:37:07;;;;;;;4.03;2.10;;;28.80;99.40;;;;;;4985522;28;20721;-75
2022/07/30 11:39:52;;;;;;;5.45;1.70;;;28.30;98.70;;;;;;4982182;28;20274;-74
2022/07/30 11:42:29;;;;;;;2.33;1.45;;;27.90;98.80;;;;;;4967572;28;20729;-75
2022/07/30 11:45:17;;;;;;;2.78;1.50;;;28.30;99.10;;;;;;4981531;28;20228;-73
2022/07/30 11:47:44;;;;;;;4.22;1.77;;;27.60;98.60;;;;;;4983685;28;20185;-74
2022/07/30 11:50:23;;;;;;;3.53;1.63;;;28.10;99.20;;;;;;4988454;28;20251;-74
2022/07/30 11:52:55;;;;;;;2.13;1.10;;;28.40;97.70;;;;;;4980718;28;20237;-75
2022/07/30 11:55:43;;;;;;;2.17;1.20;;;28.70;97.50;;;;;;4970164;28;20199;-74
2022/07/30 11:58:23;;;;;;;2.75;1.67;;;28.60;97.60;;;;;;4968431;28;20198;-74
2022/07/30 12:00:49;;;;;;;1.50;1.13;;;28.10;97.30;;;;;;4985287;28;20283;-75
2022/07/30 12:03:17;;;;;;;2.97;1.20;;;27.70;97.80;;;;;;4984766;28;20229;-75
2022/07/30 12:05:44;;;;;;;2.47;1.23;;;28.00;97.80;;;;;;4986469;28;20170;-75
2022/07/30 12:08:11;;;;;;;1.35;1.25;;;27.90;97.20;;;;;;4989567;28;20273;-74
2022/07/30 12:10:40;;;;;;;4.07;1.58;;;27.80;97.80;;;;;;4985217;28;20229;-75
2022/07/30 12:13:14;;;;;;;2.80;1.40;;;27.50;97.80;;;;;;4983555;28;20224;-75
2022/07/30 12:15:46;;;;;;;2.67;1.25;;;27.40;97.20;;;;;;4973160;28;20233;-75
2022/07/30 12:18:12;;;;;;;3.00;1.35;;;27.30;97.80;;;;;;4966187;28;20762;-74
2022/07/30 12:20:39;;;;;;;3.08;1.77;;;27.20;97.90;;;;;;4967677;28;20216;-74
2022/07/30 12:23:14;;;;;;;2.05;1.33;;;27.40;95.90;;;;;;4984258;28;20192;-75
2022/07/30 12:25:41;;;;;;;3.70;1.77;;;27.50;96.50;;;;;;4987449;28;20272;-75
2022/07/30 12:28:17;;;;;;;4.43;1.88;;;27.60;97.20;;;;;;4985244;28;20212;-75
2022/07/30 12:30:43;;;;;;;1.85;1.33;;;27.40;97.20;;;;;;4983366;28;20209;-75
2022/07/30 12:33:09;;;;;;;3.38;1.40;;;27.60;97.40;;;;;;5000936;28;20221;-75
2022/07/30 12:35:45;;;;;;;2.13;1.38;;;27.90;96.80;;;;;;5001305;28;20184;-75
2022/07/30 12:38:12;;;;;;;2.25;1.50;;;28.00;96.70;;;;;;4998501;28;20170;-74
2022/07/30 12:40:57;;;;;;;3.65;1.05;;;27.90;96.70;;;;;;5000694;28;20222;-75
2022/07/30 12:43:44;;;;;;;4.40;2.35;;;27.50;96.60;;;;;;5001588;28;20209;-75
2022/07/30 12:46:11;;;;;;;1.60;1.42;;;27.30;97.30;;;;;;4995763;28;20236;-75
2022/07/30 12:48:37;;;;;;;2.45;1.45;;;27.20;97.40;;;;;;4994277;28;20221;-75
2022/07/30 12:51:07;;;;;;;3.10;2.00;;;27.00;97.70;;;;;;4995875;28;20300;-75
2022/07/30 12:53:33;;;;;;;2.35;1.20;;;27.40;97.60;;;;;;4988488;28;20202;-75
2022/07/30 12:56:13;;;;;;;4.47;1.33;;;27.80;97.40;;;;;;4970510;28;20228;-76
2022/07/30 12:58:39;;;;;;;1.98;1.40;;;27.90;96.60;;;;;;4991960;28;20214;-76